Time;durP1;ratioP1;P1;durP2;ratioP2;P2;SDS_P1;SDS_P2;PMS_P1;PMS_P2;Temp;Humidity;BMP_temperature;BMP_pressure;BME280_temperature;BME280_humidity;BME280_pressure;Samples;Min_cycle;Max_cycle;Signal;HPM_P1;HPM_P2
2023/11/15 05:30:06;;;;;;;0.10;0.10;;;9.90;87.90;;;;;;6107869;23;20033;31
2023/11/15 05:32:32;;;;;;;0.10;0.10;;;9.80;88.10;;;;;;4954376;28;20039;-75
2023/11/15 05:34:57;;;;;;;0.13;0.13;;;9.80;88.20;;;;;;4965831;28;20107;-75
2023/11/15 05:37:23;;;;;;;0.10;0.10;;;9.80;88.20;;;;;;4956723;28;20031;-75
2023/11/15 05:39:48;;;;;;;0.10;0.10;;;9.80;88.30;;;;;;4960655;28;20063;-76
2023/11/15 05:42:14;;;;;;;0.10;0.10;;;9.80;88.20;;;;;;4957190;29;20038;-76
2023/11/15 05:44:40;;;;;;;0.10;0.10;;;9.80;88.20;;;;;;4959241;29;20118;-75
2023/11/15 05:47:06;;;;;;;0.10;0.10;;;9.80;88.10;;;;;;4941607;29;20402;-76
2023/11/15 05:49:31;;;;;;;0.10;0.10;;;9.90;88.10;;;;;;4950999;28;20023;-76
2023/11/15 05:51:57;;;;;;;0.10;0.10;;;9.90;88.10;;;;;;4978224;28;20051;-76
2023/11/15 05:54:23;;;;;;;0.10;0.10;;;9.90;88.00;;;;;;4963553;28;20066;-75
2023/11/15 05:56:48;;;;;;;0.20;0.20;;;9.90;88.10;;;;;;4958476;29;20031;-74
2023/11/15 05:59:14;;;;;;;0.10;0.10;;;9.90;88.20;;;;;;4955431;28;20023;-75
2023/11/15 06:01:41;;;;;;;0.15;0.15;;;9.80;88.00;;;;;;4955252;28;20039;-82
2023/11/15 06:04:10;;;;;;;0.10;0.10;;;9.80;88.20;;;;;;4958621;29;20082;-85
2023/11/15 06:06:36;;;;;;;0.10;0.10;;;9.80;88.10;;;;;;4968017;28;20108;-92
2023/11/15 06:09:23;;;;;;;0.10;0.10;;;9.80;88.20;;;;;;4962225;28;20023;-84
2023/11/15 06:11:48;;;;;;;0.20;0.20;;;9.90;88.20;;;;;;4958458;29;20034;-85
2023/11/15 06:14:17;;;;;;;0.10;0.10;;;9.90;88.20;;;;;;4959246;29;20023;-82
2023/11/15 06:16:42;;;;;;;0.10;0.10;;;9.90;88.20;;;;;;4958219;28;20110;-82
2023/11/15 06:19:08;;;;;;;0.10;0.10;;;9.90;88.30;;;;;;4958568;29;20065;-83
2023/11/15 06:21:42;;;;;;;0.15;0.10;;;9.90;88.10;;;;;;4958766;29;20042;-83
2023/11/15 06:24:08;;;;;;;0.10;0.10;;;9.90;88.20;;;;;;4941262;29;20557;-86
2023/11/15 06:26:38;;;;;;;0.10;0.10;;;9.90;88.20;;;;;;4941595;29;20074;-86
2023/11/15 06:29:05;;;;;;;0.10;0.10;;;9.90;88.30;;;;;;4958308;29;20413;-82
2023/11/15 06:31:36;;;;;;;0.10;0.10;;;9.90;88.30;;;;;;4953281;29;20056;-86
2023/11/15 06:34:04;;;;;;;0.10;0.10;;;9.90;88.30;;;;;;4938245;29;20039;-88
2023/11/15 06:36:34;;;;;;;0.20;0.20;;;9.90;88.30;;;;;;4935199;29;20032;-86
2023/11/15 06:39:01;;;;;;;0.10;0.10;;;9.90;88.40;;;;;;4943665;29;20364;-86
2023/11/15 06:41:26;;;;;;;0.10;0.10;;;9.90;88.30;;;;;;4958717;29;20115;-85
2023/11/15 06:43:52;;;;;;;0.10;0.10;;;9.90;88.40;;;;;;4942714;29;20062;-91
2023/11/15 06:46:18;;;;;;;0.10;0.10;;;9.90;88.40;;;;;;4941266;29;20027;-83
2023/11/15 06:48:44;;;;;;;0.10;0.10;;;9.90;88.40;;;;;;4932409;29;20028;-83
2023/11/15 06:51:09;;;;;;;0.10;0.10;;;9.90;88.40;;;;;;4921589;29;20035;-83
2023/11/15 06:53:35;;;;;;;0.10;0.10;;;9.90;88.40;;;;;;4933640;29;20035;-83
2023/11/15 06:56:01;;;;;;;0.10;0.10;;;10.00;88.30;;;;;;4941604;29;20151;-83
2023/11/15 06:58:26;;;;;;;0.10;0.10;;;10.00;88.30;;;;;;4942336;29;20028;-83
2023/11/15 07:00:54;;;;;;;0.20;0.20;;;10.00;88.30;;;;;;4942303;29;20035;-83
2023/11/15 07:03:22;;;;;;;0.10;0.10;;;9.90;88.30;;;;;;4940834;29;20023;-83
2023/11/15 07:05:48;;;;;;;0.10;0.10;;;10.00;88.20;;;;;;4944102;29;20076;-83
2023/11/15 07:08:16;;;;;;;0.10;0.10;;;9.90;88.40;;;;;;4942687;29;20446;-83
2023/11/15 07:10:42;;;;;;;0.10;0.10;;;9.90;88.30;;;;;;4942005;29;20483;-83
2023/11/15 07:13:12;;;;;;;0.10;0.10;;;9.90;88.20;;;;;;4940438;29;20090;-84
2023/11/15 07:15:39;;;;;;;0.10;0.10;;;9.90;88.30;;;;;;4942285;29;20454;-82
2023/11/15 07:18:06;;;;;;;0.10;0.10;;;9.90;88.10;;;;;;4928682;29;20032;-82
2023/11/15 07:20:34;;;;;;;0.10;0.10;;;9.90;88.20;;;;;;4926591;29;20035;-83
2023/11/15 07:23:00;;;;;;;0.15;0.15;;;9.90;88.10;;;;;;4926642;29;20159;-83
2023/11/15 07:25:27;;;;;;;0.10;0.10;;;9.90;88.20;;;;;;4923493;29;20100;-82
2023/11/15 07:27:55;;;;;;;0.10;0.10;;;9.90;88.10;;;;;;4922370;29;20024;-83
2023/11/15 07:30:22;;;;;;;0.10;0.10;;;9.90;88.10;;;;;;4924158;29;20056;-84
2023/11/15 07:32:49;;;;;;;0.10;0.10;;;9.90;88.20;;;;;;4957065;29;20027;-84
2023/11/15 07:35:14;;;;;;;0.10;0.10;;;9.90;88.10;;;;;;4959709;29;20114;-83
2023/11/15 07:37:40;;;;;;;0.20;0.10;;;9.90;88.10;;;;;;4961051;29;20069;-83
2023/11/15 07:40:12;;;;;;;0.10;0.10;;;10.00;88.10;;;;;;4948621;28;20113;-83
2023/11/15 07:42:39;;;;;;;0.10;0.10;;;10.00;88.10;;;;;;4966016;28;20056;-84
2023/11/15 07:45:08;;;;;;;0.10;0.10;;;10.00;88.10;;;;;;4960237;29;20027;-84
2023/11/15 07:47:34;;;;;;;0.10;0.10;;;10.00;88.00;;;;;;4961179;28;20102;-84
2023/11/15 07:50:03;;;;;;;0.10;0.10;;;10.00;88.10;;;;;;4960984;29;20024;-84
2023/11/15 07:52:32;;;;;;;0.20;0.20;;;10.00;88.00;;;;;;4958401;29;20034;-84
2023/11/15 07:54:58;;;;;;;0.10;0.10;;;10.00;88.10;;;;;;4961064;29;20033;-84
2023/11/15 07:57:24;;;;;;;0.10;0.10;;;10.00;88.10;;;;;;4944031;29;20027;-84
2023/11/15 07:59:51;;;;;;;0.10;0.10;;;10.00;88.00;;;;;;4943074;29;20079;-84
2023/11/15 08:02:17;;;;;;;0.10;0.10;;;10.10;88.00;;;;;;4959992;29;20110;-84
2023/11/15 08:04:43;;;;;;;0.10;0.10;;;10.10;88.00;;;;;;4961059;29;20098;-84
2023/11/15 08:07:09;;;;;;;0.10;0.10;;;10.20;88.00;;;;;;4956915;29;20023;-84
2023/11/15 08:09:34;;;;;;;0.20;0.20;;;10.20;88.00;;;;;;4961784;29;20031;-84
2023/11/15 08:12:01;;;;;;;0.10;0.10;;;10.20;88.00;;;;;;4962149;29;20031;-83
2023/11/15 08:14:29;;;;;;;0.10;0.10;;;10.20;88.00;;;;;;4944126;29;20066;-83
2023/11/15 08:16:54;;;;;;;0.00;0.00;;;10.20;88.10;;;;;;4958981;29;20053;-84
2023/11/15 08:19:20;;;;;;;0.10;0.10;;;10.30;88.10;;;;;;4959634;29;20442;-83
2023/11/15 08:21:47;;;;;;;0.10;0.10;;;10.30;88.00;;;;;;4961050;29;20512;-84
2023/11/15 08:24:20;;;;;;;0.10;0.10;;;10.30;88.20;;;;;;4960795;29;20038;-84
2023/11/15 08:26:52;;;;;;;;;;;10.40;88.10;;;;;;4944910;29;20035;-84
2023/11/15 08:29:18;;;;;;;0.17;0.17;;;10.40;88.10;;;;;;4961002;29;19961;-84
2023/11/15 08:31:43;;;;;;;0.10;0.10;;;10.50;88.10;;;;;;4971039;28;20047;-84
2023/11/15 08:34:10;;;;;;;0.10;0.10;;;10.50;88.10;;;;;;4960396;29;20522;-83
2023/11/15 08:36:37;;;;;;;0.10;0.10;;;10.50;88.10;;;;;;4943375;29;20387;-84
2023/11/15 08:39:02;;;;;;;0.10;0.10;;;10.60;88.10;;;;;;4943140;29;20557;-84
2023/11/15 08:41:28;;;;;;;0.10;0.10;;;10.60;88.10;;;;;;4959826;29;20085;-85
2023/11/15 08:43:54;;;;;;;0.17;0.17;;;10.70;88.10;;;;;;4943051;29;20031;-84
2023/11/15 08:46:23;;;;;;;0.10;0.10;;;10.70;88.20;;;;;;4960293;29;20023;-84
2023/11/15 08:48:51;;;;;;;0.15;0.15;;;10.80;88.00;;;;;;4960368;29;20167;-85
2023/11/15 08:51:19;;;;;;;0.10;0.10;;;10.80;88.00;;;;;;4939480;29;20554;-84
2023/11/15 08:53:47;;;;;;;0.10;0.10;;;10.80;88.00;;;;;;4940854;29;20398;-83
2023/11/15 08:56:14;;;;;;;0.10;0.10;;;10.90;87.90;;;;;;4959230;28;20038;-84
2023/11/15 08:58:40;;;;;;;0.10;0.10;;;11.00;88.00;;;;;;4958709;28;20027;-84
2023/11/15 09:01:08;;;;;;;0.30;0.30;;;11.00;87.90;;;;;;4959048;28;20504;-84
2023/11/15 09:03:34;;;;;;;0.10;0.10;;;11.10;87.90;;;;;;4942760;29;20082;-84
2023/11/15 09:06:00;;;;;;;0.10;0.10;;;11.20;87.80;;;;;;4959346;28;20098;-84
2023/11/15 09:08:26;;;;;;;0.10;0.10;;;11.20;87.80;;;;;;4958714;28;20093;-84
2023/11/15 09:10:51;;;;;;;0.13;0.13;;;11.30;87.70;;;;;;4958534;28;20496;-84
2023/11/15 09:13:18;;;;;;;0.10;0.10;;;11.30;87.60;;;;;;4960948;28;20472;-84
2023/11/15 09:15:50;;;;;;;0.93;0.93;;;11.50;87.50;;;;;;4959654;29;20179;-85
2023/11/15 09:18:19;;;;;;;0.30;0.30;;;11.60;87.30;;;;;;4960236;28;20055;-84
2023/11/15 09:20:47;;;;;;;0.13;0.13;;;11.70;86.80;;;;;;4959416;29;20033;-85
2023/11/15 09:23:13;;;;;;;1.80;1.70;;;11.90;86.70;;;;;;4938625;29;20079;-85
2023/11/15 09:25:39;;;;;;;0.10;0.10;;;11.90;86.60;;;;;;4940939;29;20028;-85
2023/11/15 09:28:05;;;;;;;0.10;0.10;;;12.00;86.20;;;;;;4950379;29;20020;-84
2023/11/15 09:30:31;;;;;;;0.20;0.20;;;11.90;86.40;;;;;;4941203;29;20074;-84
2023/11/15 09:32:58;;;;;;;0.10;0.10;;;12.00;86.50;;;;;;4929014;29;20023;-84
2023/11/15 09:35:31;;;;;;;0.10;0.10;;;12.00;86.50;;;;;;4960257;29;20390;-85
2023/11/15 09:37:57;;;;;;;0.10;0.10;;;12.00;86.50;;;;;;4960536;28;20023;-85
2023/11/15 09:40:25;;;;;;;0.10;0.10;;;12.00;86.30;;;;;;4965530;28;20039;-84
2023/11/15 09:42:55;;;;;;;0.10;0.10;;;12.10;86.50;;;;;;4978257;28;20038;-85
2023/11/15 09:45:23;;;;;;;0.20;0.20;;;12.20;86.50;;;;;;4977521;28;20034;-84
2023/11/15 09:47:53;;;;;;;0.10;0.10;;;12.20;86.40;;;;;;4974337;28;20027;-85
2023/11/15 09:50:24;;;;;;;0.10;0.10;;;12.30;86.30;;;;;;4957659;29;20062;-84
2023/11/15 09:52:53;;;;;;;0.10;0.10;;;12.30;86.20;;;;;;4958948;29;20027;-84
2023/11/15 09:55:23;;;;;;;0.10;0.10;;;12.30;86.10;;;;;;4959071;29;20493;-85
2023/11/15 09:57:51;;;;;;;0.10;0.10;;;12.40;86.20;;;;;;4958395;29;20038;-84
2023/11/15 10:00:21;;;;;;;0.20;0.20;;;12.40;86.30;;;;;;4957774;29;20203;-85
2023/11/15 10:02:52;;;;;;;0.10;0.10;;;12.50;86.10;;;;;;4957699;29;20027;-84
2023/11/15 10:05:18;;;;;;;0.10;0.10;;;12.60;85.90;;;;;;4958106;29;20027;-85
2023/11/15 10:07:51;;;;;;;0.10;0.10;;;12.60;85.90;;;;;;4944455;29;20062;-84
2023/11/15 10:10:21;;;;;;;0.10;0.10;;;12.70;85.70;;;;;;4958670;29;20087;-84
2023/11/15 10:12:53;;;;;;;0.13;0.13;;;12.80;85.60;;;;;;4940309;28;20110;-85
2023/11/15 10:15:29;;;;;;;0.10;0.10;;;12.80;85.60;;;;;;4958885;29;20035;-84
2023/11/15 10:17:56;;;;;;;0.10;0.10;;;12.80;85.20;;;;;;4958204;29;20055;-85
2023/11/15 10:20:25;;;;;;;0.10;0.10;;;12.90;85.20;;;;;;4959914;29;20109;-85
2023/11/15 10:22:53;;;;;;;0.10;0.10;;;12.90;85.20;;;;;;4943112;29;20019;-84
2023/11/15 10:25:19;;;;;;;0.10;0.10;;;13.00;84.70;;;;;;4941252;29;20032;-84
2023/11/15 10:27:46;;;;;;;0.10;0.10;;;13.00;84.70;;;;;;4956986;29;20047;-85
2023/11/15 10:30:16;;;;;;;0.10;0.10;;;13.10;84.60;;;;;;4958972;29;20027;-86
2023/11/15 10:32:45;;;;;;;0.10;0.10;;;13.10;84.30;;;;;;4942139;29;20027;-86
2023/11/15 10:35:22;;;;;;;0.10;0.10;;;13.10;84.20;;;;;;4959794;29;20027;-84
2023/11/15 10:37:48;;;;;;;0.10;0.10;;;13.20;83.70;;;;;;4959772;29;20019;-84
2023/11/15 10:40:14;;;;;;;0.10;0.10;;;13.20;83.70;;;;;;4947066;28;20470;-84
2023/11/15 10:42:48;;;;;;;0.10;0.10;;;13.20;83.50;;;;;;4977781;28;20087;-84
2023/11/15 10:45:16;;;;;;;0.10;0.10;;;13.30;83.10;;;;;;4976810;28;20150;-84
2023/11/15 10:47:54;;;;;;;0.10;0.10;;;13.30;83.40;;;;;;4959174;28;20359;-84
2023/11/15 10:50:21;;;;;;;0.10;0.10;;;13.40;82.80;;;;;;4957034;28;20031;-89
2023/11/15 10:52:51;;;;;;;0.10;0.10;;;13.50;83.00;;;;;;4951883;29;20537;-84
2023/11/15 10:55:18;;;;;;;0.13;0.13;;;13.50;82.90;;;;;;4954705;28;20039;-83
2023/11/15 10:57:46;;;;;;;0.10;0.10;;;13.60;82.50;;;;;;4950520;29;20401;-86
2023/11/15 11:00:20;;;;;;;0.10;0.10;;;13.70;82.30;;;;;;4932390;29;20063;-83
2023/11/15 11:02:56;;;;;;;0.10;0.10;;;13.70;82.10;;;;;;4937292;29;20027;-82
2023/11/15 11:05:30;;;;;;;0.10;0.10;;;13.80;81.90;;;;;;4953201;29;20103;-83
2023/11/15 11:08:34;;;;;;;0.10;0.10;;;13.80;82.10;;;;;;4956140;29;20038;-82
2023/11/15 11:11:17;;;;;;;0.10;0.10;;;13.80;82.00;;;;;;4936832;29;20043;-81
2023/11/15 11:13:43;;;;;;;;;;;13.70;81.30;;;;;;4940332;29;20118;-82
2023/11/15 11:16:26;;;;;;;0.10;0.10;;;13.80;81.30;;;;;;4954843;29;20582;-83
2023/11/15 11:19:12;;;;;;;0.10;0.10;;;13.80;81.30;;;;;;4952509;29;20042;-82
2023/11/15 11:24:25;;;;;;;0.10;0.10;;;13.90;80.90;;;;;;4956100;29;20035;-82
2023/11/15 11:26:52;;;;;;;0.10;0.10;;;13.90;80.90;;;;;;4944141;28;20367;-80
2023/11/15 11:29:18;;;;;;;0.10;0.10;;;13.90;81.30;;;;;;4960048;29;20027;-82
2023/11/15 11:35:07;;;;;;;0.10;0.10;;;14.00;80.70;;;;;;4938888;29;20584;-83
2023/11/15 11:37:55;;;;;;;0.10;0.10;;;14.10;80.50;;;;;;4940281;29;20031;-87
2023/11/15 11:40:28;;;;;;;0.10;0.10;;;14.10;80.20;;;;;;4935334;29;20032;-82
2023/11/15 11:43:10;;;;;;;0.10;0.10;;;14.20;80.40;;;;;;4943444;29;20111;-81
2023/11/15 11:45:36;;;;;;;0.10;0.10;;;14.20;79.90;;;;;;4941762;29;20031;-82
2023/11/15 11:48:02;;;;;;;0.10;0.10;;;14.30;80.10;;;;;;4942008;29;20023;-82
2023/11/15 11:50:28;;;;;;;0.10;0.10;;;14.30;79.20;;;;;;4940280;29;20035;-82
2023/11/15 11:52:55;;;;;;;0.10;0.10;;;14.40;79.50;;;;;;4941563;29;20031;-82
2023/11/15 11:55:22;;;;;;;0.10;0.10;;;14.40;79.40;;;;;;4935726;29;20498;-82
2023/11/15 11:57:50;;;;;;;0.10;0.10;;;14.50;79.20;;;;;;4941764;29;20149;-83
2023/11/15 12:00:18;;;;;;;0.10;0.10;;;14.50;79.30;;;;;;4940758;29;20079;-81
2023/11/15 12:02:45;;;;;;;0.08;0.08;;;14.40;78.50;;;;;;4955847;29;20061;-82
2023/11/15 12:05:12;;;;;;;0.10;0.10;;;14.30;79.10;;;;;;4922814;29;20024;-81
2023/11/15 12:07:48;;;;;;;0.10;0.10;;;14.30;79.00;;;;;;4923854;29;20050;-81
2023/11/15 12:10:16;;;;;;;0.00;0.00;;;14.40;78.90;;;;;;4924722;29;20028;-82
2023/11/15 12:12:55;;;;;;;0.10;0.10;;;14.40;78.80;;;;;;4940500;29;20016;-82
2023/11/15 12:15:27;;;;;;;0.10;0.10;;;14.50;78.80;;;;;;4920923;29;20115;-82
2023/11/15 12:17:54;;;;;;;0.10;0.10;;;14.60;78.30;;;;;;4935744;29;20035;-82
2023/11/15 12:20:31;;;;;;;0.08;0.08;;;14.70;78.10;;;;;;4940750;29;20023;-82
2023/11/15 12:23:10;;;;;;;0.10;0.10;;;14.80;78.00;;;;;;4940310;29;20028;-83
2023/11/15 12:25:51;;;;;;;0.10;0.10;;;14.80;77.60;;;;;;4941859;29;20028;-82
2023/11/15 12:28:22;;;;;;;0.10;0.10;;;14.80;77.50;;;;;;4941077;29;20035;-82
2023/11/15 12:30:49;;;;;;;0.10;0.10;;;14.80;77.40;;;;;;4925226;29;20058;-82
2023/11/15 12:33:15;;;;;;;0.10;0.10;;;14.80;77.30;;;;;;4941212;29;20087;-82
2023/11/15 12:35:43;;;;;;;0.10;0.10;;;14.70;77.60;;;;;;4940474;29;20070;-82
2023/11/15 12:38:14;;;;;;;0.10;0.10;;;14.70;77.60;;;;;;4940550;29;20116;-81
2023/11/15 12:40:44;;;;;;;0.10;0.10;;;14.70;77.50;;;;;;4941592;29;20042;-82
2023/11/15 12:43:21;;;;;;;0.10;0.10;;;14.60;77.30;;;;;;4960191;29;20020;-82
2023/11/15 12:45:47;;;;;;;0.00;0.00;;;14.70;77.90;;;;;;4905578;29;20032;-81
2023/11/15 12:48:12;;;;;;;0.10;0.10;;;14.70;77.20;;;;;;4935613;29;20205;-81
2023/11/15 12:50:40;;;;;;;0.10;0.10;;;14.70;77.50;;;;;;4939318;29;20027;-81
2023/11/15 12:53:18;;;;;;;0.10;0.10;;;14.70;77.50;;;;;;4939036;29;20059;-82
2023/11/15 12:55:49;;;;;;;0.10;0.10;;;14.70;77.60;;;;;;4929322;29;20052;-81
2023/11/15 12:58:25;;;;;;;0.10;0.10;;;14.80;77.20;;;;;;4934973;29;20023;-82
2023/11/15 13:01:07;;;;;;;0.10;0.10;;;14.80;77.10;;;;;;4929402;29;20052;-81
2023/11/15 13:03:35;;;;;;;0.10;0.10;;;14.90;76.90;;;;;;4938151;29;20070;-80
2023/11/15 13:06:11;;;;;;;0.10;0.10;;;14.80;77.60;;;;;;4936947;29;20394;-81
2023/11/15 13:08:47;;;;;;;0.00;0.00;;;14.90;77.30;;;;;;4920336;29;20067;-80
2023/11/15 13:11:25;;;;;;;0.10;0.10;;;14.80;77.10;;;;;;4937466;29;20055;-81
2023/11/15 13:13:52;;;;;;;0.10;0.10;;;14.80;76.90;;;;;;4928197;29;20024;-80
2023/11/15 13:16:20;;;;;;;0.10;0.10;;;14.80;77.00;;;;;;4939821;29;20410;-80
2023/11/15 13:18:49;;;;;;;0.10;0.10;;;14.80;76.80;;;;;;4936939;29;20054;-80
2023/11/15 13:21:18;;;;;;;0.10;0.10;;;14.90;77.20;;;;;;4939268;29;20036;-80
2023/11/15 13:23:48;;;;;;;0.10;0.10;;;14.90;77.20;;;;;;4939574;29;20019;-80
2023/11/15 13:26:14;;;;;;;0.10;0.10;;;14.90;77.30;;;;;;4917735;29;20098;-81
2023/11/15 13:28:43;;;;;;;0.10;0.10;;;14.90;76.80;;;;;;4938310;29;20392;-81
2023/11/15 13:31:13;;;;;;;0.10;0.10;;;14.80;76.90;;;;;;4936440;29;20059;-82
2023/11/15 13:33:41;;;;;;;0.10;0.10;;;14.80;76.80;;;;;;4930798;29;20031;-79
2023/11/15 13:36:08;;;;;;;0.10;0.10;;;14.80;77.10;;;;;;4937149;29;20043;-80
2023/11/15 13:38:34;;;;;;;0.10;0.10;;;14.70;76.90;;;;;;4951014;29;20490;-81
2023/11/15 13:41:07;;;;;;;0.10;0.10;;;14.70;77.30;;;;;;4947288;28;20032;-80
2023/11/15 13:43:34;;;;;;;0.03;0.03;;;14.70;77.40;;;;;;4935272;29;20038;-80
2023/11/15 13:45:59;;;;;;;0.10;0.10;;;14.70;77.10;;;;;;4944525;28;20027;-80
2023/11/15 13:48:25;;;;;;;0.10;0.10;;;14.70;77.30;;;;;;4929231;29;20035;-79
2023/11/15 13:50:51;;;;;;;0.10;0.10;;;14.70;77.30;;;;;;4931546;29;20083;-80
2023/11/15 13:53:18;;;;;;;0.08;0.08;;;14.60;77.30;;;;;;4942989;29;20036;-80
2023/11/15 13:55:43;;;;;;;0.10;0.10;;;14.60;77.10;;;;;;4943811;29;20028;-80
2023/11/15 13:58:09;;;;;;;0.10;0.10;;;14.60;77.30;;;;;;4943867;29;20042;-80
2023/11/15 14:00:34;;;;;;;0.10;0.10;;;14.60;77.30;;;;;;4927784;29;20063;-80
2023/11/15 14:03:07;;;;;;;0.00;0.00;;;14.50;76.60;;;;;;4929526;29;20184;-80
2023/11/15 14:05:33;;;;;;;;;;;14.50;77.30;;;;;;4943939;28;20082;-80
2023/11/15 14:08:00;;;;;;;0.10;0.10;;;14.50;77.30;;;;;;4929794;29;19954;-80
2023/11/15 14:10:29;;;;;;;0.10;0.10;;;14.40;77.40;;;;;;4932637;29;20024;-80
2023/11/15 14:13:07;;;;;;;0.10;0.10;;;14.40;77.40;;;;;;4943577;29;20167;-80
2023/11/15 14:15:33;;;;;;;0.00;0.00;;;14.40;77.10;;;;;;4949450;29;20035;-80
2023/11/15 14:18:03;;;;;;;0.10;0.10;;;14.40;77.70;;;;;;4947152;28;20398;-80
2023/11/15 14:20:33;;;;;;;0.10;0.10;;;14.50;77.70;;;;;;4942768;29;20084;-80
2023/11/15 14:22:59;;;;;;;0.10;0.10;;;14.50;77.30;;;;;;4950394;29;20078;-80
2023/11/15 14:25:31;;;;;;;0.10;0.10;;;14.50;77.30;;;;;;4933059;29;20036;-80
2023/11/15 14:27:57;;;;;;;0.10;0.10;;;14.50;77.30;;;;;;4932426;29;20038;-80
2023/11/15 14:30:23;;;;;;;0.10;0.10;;;14.50;77.50;;;;;;4932616;29;20039;-80
2023/11/15 14:32:50;;;;;;;0.10;0.10;;;14.40;77.30;;;;;;4937989;29;20115;-80
2023/11/15 14:35:17;;;;;;;0.00;0.00;;;14.40;77.60;;;;;;4938157;29;20031;-80
2023/11/15 14:37:43;;;;;;;0.03;0.03;;;14.30;77.10;;;;;;4937312;29;20024;-79
2023/11/15 14:40:13;;;;;;;0.10;0.10;;;14.30;77.50;;;;;;4921431;29;20637;-79
2023/11/15 14:42:46;;;;;;;0.10;0.10;;;14.30;77.90;;;;;;4935651;29;20383;-80
2023/11/15 14:45:15;;;;;;;0.10;0.10;;;14.30;77.80;;;;;;4937272;29;20103;-80
2023/11/15 14:47:44;;;;;;;0.10;0.10;;;14.30;78.10;;;;;;4938469;29;20035;-80
2023/11/15 14:50:14;;;;;;;0.10;0.10;;;14.30;77.80;;;;;;4936727;29;20015;-79
2023/11/15 14:55:32;;;;;;;0.00;0.00;;;14.20;78.30;;;;;;4934892;29;20042;-81
2023/11/15 14:58:02;;;;;;;0.10;0.10;;;14.20;78.80;;;;;;4938993;29;20039;-81
2023/11/15 15:00:40;;;;;;;0.10;0.10;;;14.20;78.90;;;;;;4938811;29;20019;-81
2023/11/15 15:03:10;;;;;;;0.10;0.10;;;14.10;79.20;;;;;;4940474;29;20082;-82
2023/11/15 15:05:37;;;;;;;0.10;0.10;;;14.10;79.20;;;;;;4942224;29;20028;-87
2023/11/15 15:08:04;;;;;;;0.10;0.10;;;14.00;79.10;;;;;;4924488;29;20112;-83
2023/11/15 15:10:29;;;;;;;0.10;0.10;;;14.00;78.50;;;;;;4924697;29;20130;-84
2023/11/15 15:12:55;;;;;;;0.10;0.10;;;14.00;78.50;;;;;;4920937;29;20074;-82
2023/11/15 15:15:21;;;;;;;0.10;0.10;;;13.90;78.30;;;;;;4922052;29;20487;-83
2023/11/15 15:17:48;;;;;;;0.10;0.10;;;13.90;78.80;;;;;;4931567;29;20050;-83
2023/11/15 15:20:16;;;;;;;0.10;0.10;;;13.90;79.00;;;;;;4940741;29;20078;-82
2023/11/15 15:22:42;;;;;;;0.10;0.10;;;13.90;79.20;;;;;;4938981;29;20045;-83
2023/11/15 15:25:08;;;;;;;0.00;0.00;;;13.80;79.10;;;;;;4939547;29;20074;-82
2023/11/15 15:27:37;;;;;;;0.03;0.03;;;13.80;79.40;;;;;;4941427;29;20031;-82
2023/11/15 15:30:04;;;;;;;0.10;0.10;;;13.80;79.30;;;;;;4940736;29;20053;-83
2023/11/15 15:32:30;;;;;;;0.00;0.00;;;13.80;79.50;;;;;;4958207;29;20061;-83
2023/11/15 15:34:57;;;;;;;0.10;0.10;;;13.70;79.50;;;;;;4956786;29;20023;-83
2023/11/15 15:37:23;;;;;;;0.10;0.10;;;13.70;79.70;;;;;;4954623;29;20055;-82
2023/11/15 15:39:49;;;;;;;0.10;0.10;;;13.70;79.70;;;;;;4952715;28;20035;-83
2023/11/15 15:42:19;;;;;;;0.10;0.10;;;13.60;79.90;;;;;;4950999;29;20118;-82
2023/11/15 15:44:48;;;;;;;0.05;0.05;;;13.60;80.40;;;;;;4950382;28;20385;-82
2023/11/15 15:47:13;;;;;;;0.00;0.00;;;13.60;80.70;;;;;;4947487;29;20028;-83
2023/11/15 15:49:45;;;;;;;0.10;0.10;;;13.60;81.10;;;;;;4949752;29;20023;-83
2023/11/15 15:52:14;;;;;;;0.10;0.10;;;13.60;80.70;;;;;;4952324;29;20051;-83
2023/11/15 15:54:46;;;;;;;0.10;0.10;;;13.50;80.80;;;;;;4949098;29;20073;-83
2023/11/15 15:57:12;;;;;;;0.10;0.10;;;13.50;81.00;;;;;;4949758;29;20050;-82
2023/11/15 15:59:38;;;;;;;0.10;0.10;;;13.50;80.80;;;;;;4949797;29;20036;-82
2023/11/15 16:02:05;;;;;;;0.10;0.10;;;13.50;81.10;;;;;;4946727;29;20039;-82
2023/11/15 16:04:31;;;;;;;0.10;0.10;;;13.50;80.70;;;;;;4952042;29;20028;-83
2023/11/15 16:06:57;;;;;;;0.10;0.10;;;13.40;81.00;;;;;;4932497;29;20039;-82
2023/11/15 16:09:23;;;;;;;0.00;0.00;;;13.40;81.00;;;;;;4949706;28;20034;-83
2023/11/15 16:11:49;;;;;;;0.10;0.10;;;13.30;80.90;;;;;;4942406;29;20031;-83
2023/11/15 16:14:16;;;;;;;0.00;0.00;;;13.30;81.20;;;;;;4947548;29;20034;-83
2023/11/15 16:16:46;;;;;;;0.10;0.10;;;13.30;81.50;;;;;;4955950;28;20039;-83
2023/11/15 16:19:12;;;;;;;0.10;0.10;;;13.30;81.30;;;;;;4977862;28;20041;-83
2023/11/15 16:21:38;;;;;;;0.10;0.10;;;13.30;81.70;;;;;;4966591;28;20470;-82
2023/11/15 16:24:04;;;;;;;0.08;0.08;;;13.30;81.80;;;;;;4939547;29;20126;-82
2023/11/15 16:26:30;;;;;;;0.10;0.10;;;13.20;82.10;;;;;;4958403;29;20086;-83
2023/11/15 16:28:58;;;;;;;0.00;0.00;;;13.20;81.90;;;;;;4954443;29;20032;-83
2023/11/15 16:31:23;;;;;;;0.00;0.00;;;13.20;82.20;;;;;;4922367;29;20078;-83
2023/11/15 16:33:49;;;;;;;0.10;0.10;;;13.20;82.30;;;;;;4950137;29;20094;-82
2023/11/15 16:36:16;;;;;;;0.10;0.10;;;13.20;82.50;;;;;;4959402;29;20038;-82
2023/11/15 16:38:42;;;;;;;0.10;0.10;;;13.20;82.40;;;;;;4930779;29;20027;-82
2023/11/15 16:41:08;;;;;;;0.10;0.10;;;13.20;82.50;;;;;;4951487;28;20094;-82
2023/11/15 16:43:34;;;;;;;0.10;0.10;;;13.20;82.20;;;;;;4950830;29;20028;-83
2023/11/15 16:45:59;;;;;;;0.10;0.10;;;13.20;82.20;;;;;;4929335;29;20035;-82
2023/11/15 16:48:25;;;;;;;0.10;0.10;;;13.10;82.30;;;;;;4946419;29;20130;-82
2023/11/15 16:50:51;;;;;;;0.10;0.10;;;13.10;82.50;;;;;;4942317;29;20032;-80
2023/11/15 16:53:19;;;;;;;0.10;0.10;;;13.00;82.50;;;;;;4956569;29;20035;-79
2023/11/15 16:55:45;;;;;;;0.10;0.10;;;13.00;82.70;;;;;;4952940;29;20062;-77
2023/11/15 16:58:11;;;;;;;0.10;0.10;;;13.00;82.80;;;;;;4938332;29;20028;-76
2023/11/15 17:00:39;;;;;;;0.10;0.10;;;13.00;82.90;;;;;;4952243;29;20043;-77
2023/11/15 17:03:06;;;;;;;0.00;0.00;;;12.90;82.90;;;;;;4956370;29;20501;-76
2023/11/15 17:05:32;;;;;;;0.10;0.10;;;12.90;82.80;;;;;;4955277;29;20031;-76
2023/11/15 17:07:57;;;;;;;0.10;0.10;;;12.80;82.90;;;;;;4948324;29;20028;-76
2023/11/15 17:10:28;;;;;;;0.10;0.10;;;12.80;82.90;;;;;;4933156;29;20087;-76
2023/11/15 17:12:54;;;;;;;0.10;0.10;;;12.70;83.10;;;;;;4949305;29;20074;-79
2023/11/15 17:15:23;;;;;;;0.10;0.10;;;12.70;83.10;;;;;;4951008;29;20032;-77
2023/11/15 17:17:49;;;;;;;0.05;0.05;;;12.70;83.20;;;;;;4955382;29;20401;-77
2023/11/15 17:20:18;;;;;;;0.10;0.10;;;12.70;83.20;;;;;;4954818;28;20032;-76
2023/11/15 17:22:46;;;;;;;0.03;0.03;;;12.70;83.20;;;;;;4944098;29;20038;-76
2023/11/15 17:25:12;;;;;;;0.10;0.10;;;12.70;83.30;;;;;;4949252;29;20019;-77
2023/11/15 17:27:38;;;;;;;0.08;0.08;;;12.70;83.50;;;;;;4946794;29;20044;-76
2023/11/15 17:30:05;;;;;;;0.10;0.10;;;12.70;83.60;;;;;;4939770;28;20028;-76
2023/11/15 17:32:31;;;;;;;0.10;0.10;;;12.60;83.30;;;;;;4938183;29;20051;-76
2023/11/15 17:35:03;;;;;;;0.10;0.10;;;12.60;83.40;;;;;;4937347;29;20078;-76
2023/11/15 17:37:30;;;;;;;0.10;0.10;;;12.70;83.50;;;;;;4937961;29;20078;-76
2023/11/15 17:39:56;;;;;;;0.10;0.10;;;12.70;83.70;;;;;;4941257;29;20102;-77
2023/11/15 17:42:22;;;;;;;0.10;0.10;;;12.70;83.70;;;;;;4938885;29;20099;-76
2023/11/15 17:44:48;;;;;;;0.10;0.10;;;12.70;83.70;;;;;;4918416;29;20495;-77
2023/11/15 17:47:16;;;;;;;0.10;0.10;;;12.60;83.80;;;;;;4937050;29;20028;-76
2023/11/15 17:49:42;;;;;;;0.10;0.10;;;12.70;83.70;;;;;;4910304;29;20107;-76
2023/11/15 17:52:09;;;;;;;0.10;0.10;;;12.60;83.60;;;;;;4938008;29;20047;-76
2023/11/15 17:54:36;;;;;;;0.17;0.10;;;12.60;83.70;;;;;;4913694;29;20382;-76
2023/11/15 17:57:04;;;;;;;0.10;0.10;;;12.60;83.80;;;;;;4937691;29;20032;-76
2023/11/15 17:59:30;;;;;;;0.10;0.10;;;12.60;83.80;;;;;;4937164;29;20078;-77
2023/11/15 18:01:56;;;;;;;0.10;0.10;;;12.60;83.80;;;;;;4938487;29;20122;-75
2023/11/15 18:04:21;;;;;;;0.10;0.10;;;12.60;83.60;;;;;;4937938;29;20553;-77
2023/11/15 18:06:47;;;;;;;0.10;0.10;;;12.60;83.50;;;;;;4938403;29;20459;-76
2023/11/15 18:09:13;;;;;;;0.10;0.10;;;12.50;83.70;;;;;;4938106;29;20051;-76
2023/11/15 18:11:39;;;;;;;0.08;0.08;;;12.60;83.90;;;;;;4937243;29;20047;-78
2023/11/15 18:14:05;;;;;;;0.10;0.10;;;12.50;83.70;;;;;;4935933;29;20135;-77
2023/11/15 18:16:31;;;;;;;0.10;0.10;;;12.50;83.60;;;;;;4937570;29;20031;-76
2023/11/15 18:18:58;;;;;;;0.10;0.10;;;12.40;83.80;;;;;;4937784;29;20031;-77
2023/11/15 18:21:23;;;;;;;0.10;0.10;;;12.50;83.90;;;;;;4922444;29;20036;-77
2023/11/15 18:23:50;;;;;;;0.10;0.10;;;12.50;83.70;;;;;;4942185;29;20105;-77
2023/11/15 18:26:21;;;;;;;0.10;0.10;;;12.50;83.80;;;;;;4939960;29;20640;-73
2023/11/15 18:28:46;;;;;;;0.00;0.00;;;12.50;83.80;;;;;;4938022;29;20032;-76
2023/11/15 18:31:12;;;;;;;0.10;0.10;;;12.50;83.90;;;;;;4937453;29;20052;-77
2023/11/15 18:33:38;;;;;;;0.10;0.10;;;12.50;83.80;;;;;;4941784;29;20031;-75